sensor_id;sensor_type;location;lat;lon;timestamp;temperature;humidity
26186;DHT22;20067;48.764;9.176;2022-09-23T00:00:47;10.30;90.60
26186;DHT22;20067;48.764;9.176;2022-09-23T00:03:14;10.30;90.60
26186;DHT22;20067;48.764;9.176;2022-09-23T00:05:41;10.40;90.40
26186;DHT22;20067;48.764;9.176;2022-09-23T00:08:09;10.30;90.30
26186;DHT22;20067;48.764;9.176;2022-09-23T00:10:37;10.20;90.60
26186;DHT22;20067;48.764;9.176;2022-09-23T00:13:04;10.20;91.00
26186;DHT22;20067;48.764;9.176;2022-09-23T00:15:30;10.10;91.00
26186;DHT22;20067;48.764;9.176;2022-09-23T00:17:58;10.10;91.00
26186;DHT22;20067;48.764;9.176;2022-09-23T00:20:24;10.10;91.20
26186;DHT22;20067;48.764;9.176;2022-09-23T00:22:49;10.10;91.20
26186;DHT22;20067;48.764;9.176;2022-09-23T00:25:15;10.10;91.20
26186;DHT22;20067;48.764;9.176;2022-09-23T00:27:41;10.10;91.30
26186;DHT22;20067;48.764;9.176;2022-09-23T00:30:09;10.10;91.20
26186;DHT22;20067;48.764;9.176;2022-09-23T00:32:35;10.20;91.00
26186;DHT22;20067;48.764;9.176;2022-09-23T00:35:02;10.10;91.00
26186;DHT22;20067;48.764;9.176;2022-09-23T00:37:29;10.10;91.00
26186;DHT22;20067;48.764;9.176;2022-09-23T00:39:55;10.10;90.90
26186;DHT22;20067;48.764;9.176;2022-09-23T00:42:23;10.10;90.90
26186;DHT22;20067;48.764;9.176;2022-09-23T00:44:56;10.10;90.90
26186;DHT22;20067;48.764;9.176;2022-09-23T00:50:11;10.10;90.90
26186;DHT22;20067;48.764;9.176;2022-09-23T00:52:38;10.10;90.80
26186;DHT22;20067;48.764;9.176;2022-09-23T00:55:08;10.00;90.90
26186;DHT22;20067;48.764;9.176;2022-09-23T00:57:37;10.00;91.10
26186;DHT22;20067;48.764;9.176;2022-09-23T01:00:06;10.00;91.20
26186;DHT22;20067;48.764;9.176;2022-09-23T01:02:32;9.90;91.30
26186;DHT22;20067;48.764;9.176;2022-09-23T01:05:00;9.90;91.30
26186;DHT22;20067;48.764;9.176;2022-09-23T01:07:26;9.80;91.30
26186;DHT22;20067;48.764;9.176;2022-09-23T01:09:52;9.70;91.30
26186;DHT22;20067;48.764;9.176;2022-09-23T01:15:19;9.60;91.30
26186;DHT22;20067;48.764;9.176;2022-09-23T01:29:37;9.60;91.30
26186;DHT22;20067;48.764;9.176;2022-09-23T01:32:14;9.50;91.30
26186;DHT22;20067;48.764;9.176;2022-09-23T01:37:13;9.40;91.30
26186;DHT22;20067;48.764;9.176;2022-09-23T01:39:58;9.50;91.30
26186;DHT22;20067;48.764;9.176;2022-09-23T01:42:36;9.50;91.30
26186;DHT22;20067;48.764;9.176;2022-09-23T01:45:13;9.50;91.30
26186;DHT22;20067;48.764;9.176;2022-09-23T01:47:49;9.50;91.30
26186;DHT22;20067;48.764;9.176;2022-09-23T01:50:19;9.50;91.30
26186;DHT22;20067;48.764;9.176;2022-09-23T01:53:10;9.50;91.30
26186;DHT22;20067;48.764;9.176;2022-09-23T01:55:41;9.40;91.30
26186;DHT22;20067;48.764;9.176;2022-09-23T01:58:17;9.50;91.30
26186;DHT22;20067;48.764;9.176;2022-09-23T02:00:56;9.50;91.30
26186;DHT22;20067;48.764;9.176;2022-09-23T02:03:27;9.50;91.30
26186;DHT22;20067;48.764;9.176;2022-09-23T02:06:06;9.50;91.30
26186;DHT22;20067;48.764;9.176;2022-09-23T02:11:22;9.30;91.30
26186;DHT22;20067;48.764;9.176;2022-09-23T02:16:36;9.40;91.30
26186;DHT22;20067;48.764;9.176;2022-09-23T02:19:21;9.40;91.30
26186;DHT22;20067;48.764;9.176;2022-09-23T02:21:52;9.30;91.30
26186;DHT22;20067;48.764;9.176;2022-09-23T02:24:29;9.30;91.30
26186;DHT22;20067;48.764;9.176;2022-09-23T02:30:12;9.30;91.30
26186;DHT22;20067;48.764;9.176;2022-09-23T02:32:57;9.20;91.30
26186;DHT22;20067;48.764;9.176;2022-09-23T02:36:02;9.10;91.30
26186;DHT22;20067;48.764;9.176;2022-09-23T02:38:38;9.10;91.30
26186;DHT22;20067;48.764;9.176;2022-09-23T02:46:22;9.00;91.30
26186;DHT22;20067;48.764;9.176;2022-09-23T02:49:02;9.00;91.30
26186;DHT22;20067;48.764;9.176;2022-09-23T02:51:29;9.00;91.30
26186;DHT22;20067;48.764;9.176;2022-09-23T02:53:58;9.00;91.30
26186;DHT22;20067;48.764;9.176;2022-09-23T02:56:28;9.00;91.30
26186;DHT22;20067;48.764;9.176;2022-09-23T02:58:54;8.90;91.30
26186;DHT22;20067;48.764;9.176;2022-09-23T03:15:36;8.70;91.30
26186;DHT22;20067;48.764;9.176;2022-09-23T03:18:16;8.70;91.30
26186;DHT22;20067;48.764;9.176;2022-09-23T03:20:55;8.60;91.30
26186;DHT22;20067;48.764;9.176;2022-09-23T03:23:26;8.60;91.30
26186;DHT22;20067;48.764;9.176;2022-09-23T03:25:54;8.70;91.30
26186;DHT22;20067;48.764;9.176;2022-09-23T03:28:22;8.80;91.30
26186;DHT22;20067;48.764;9.176;2022-09-23T03:30:51;8.80;91.30
26186;DHT22;20067;48.764;9.176;2022-09-23T03:33:20;8.60;91.30
26186;DHT22;20067;48.764;9.176;2022-09-23T03:36:01;8.60;91.30
26186;DHT22;20067;48.764;9.176;2022-09-23T03:38:48;8.80;91.30
26186;DHT22;20067;48.764;9.176;2022-09-23T03:41:22;8.60;91.30
26186;DHT22;20067;48.764;9.176;2022-09-23T03:43:53;8.60;91.30
26186;DHT22;20067;48.764;9.176;2022-09-23T03:46:24;8.60;91.30
26186;DHT22;20067;48.764;9.176;2022-09-23T03:48:49;8.50;91.30
26186;DHT22;20067;48.764;9.176;2022-09-23T03:51:21;8.60;91.30
26186;DHT22;20067;48.764;9.176;2022-09-23T03:53:48;8.60;91.30
26186;DHT22;20067;48.764;9.176;2022-09-23T03:56:14;8.60;91.30
26186;DHT22;20067;48.764;9.176;2022-09-23T03:58:40;8.60;91.30
26186;DHT22;20067;48.764;9.176;2022-09-23T04:01:06;8.60;91.30
26186;DHT22;20067;48.764;9.176;2022-09-23T04:03:32;8.70;91.30
26186;DHT22;20067;48.764;9.176;2022-09-23T04:05:57;8.60;91.30
26186;DHT22;20067;48.764;9.176;2022-09-23T04:08:23;8.60;91.30
26186;DHT22;20067;48.764;9.176;2022-09-23T04:10:48;8.60;91.30
26186;DHT22;20067;48.764;9.176;2022-09-23T04:13:15;8.60;91.30
26186;DHT22;20067;48.764;9.176;2022-09-23T04:15:40;8.60;91.30
26186;DHT22;20067;48.764;9.176;2022-09-23T04:18:06;8.60;91.30
26186;DHT22;20067;48.764;9.176;2022-09-23T04:20:31;8.60;91.30
26186;DHT22;20067;48.764;9.176;2022-09-23T04:22:57;8.60;91.30
26186;DHT22;20067;48.764;9.176;2022-09-23T04:25:23;8.50;91.30
26186;DHT22;20067;48.764;9.176;2022-09-23T04:27:48;8.50;91.30
26186;DHT22;20067;48.764;9.176;2022-09-23T04:30:14;8.50;91.30
26186;DHT22;20067;48.764;9.176;2022-09-23T04:32:40;8.50;91.30
26186;DHT22;20067;48.764;9.176;2022-09-23T04:35:06;8.50;91.30
26186;DHT22;20067;48.764;9.176;2022-09-23T04:37:31;8.40;91.30
26186;DHT22;20067;48.764;9.176;2022-09-23T04:39:57;8.40;91.30
26186;DHT22;20067;48.764;9.176;2022-09-23T04:42:23;8.40;91.30
26186;DHT22;20067;48.764;9.176;2022-09-23T04:44:48;8.40;91.30
26186;DHT22;20067;48.764;9.176;2022-09-23T04:47:14;8.40;91.30
26186;DHT22;20067;48.764;9.176;2022-09-23T04:49:40;8.40;91.30
26186;DHT22;20067;48.764;9.176;2022-09-23T04:52:06;8.40;91.30
26186;DHT22;20067;48.764;9.176;2022-09-23T04:54:32;8.40;91.30
26186;DHT22;20067;48.764;9.176;2022-09-23T04:56:57;8.30;91.30
26186;DHT22;20067;48.764;9.176;2022-09-23T04:59:23;8.20;91.30
26186;DHT22;20067;48.764;9.176;2022-09-23T05:01:49;8.30;91.30
26186;DHT22;20067;48.764;9.176;2022-09-23T05:04:16;8.20;91.30
26186;DHT22;20067;48.764;9.176;2022-09-23T05:06:42;8.20;91.30
26186;DHT22;20067;48.764;9.176;2022-09-23T05:09:14;8.20;91.30
26186;DHT22;20067;48.764;9.176;2022-09-23T05:11:41;8.30;91.30
26186;DHT22;20067;48.764;9.176;2022-09-23T05:14:08;8.30;91.30
26186;DHT22;20067;48.764;9.176;2022-09-23T05:16:34;8.30;91.30
26186;DHT22;20067;48.764;9.176;2022-09-23T05:19:00;8.30;91.30
26186;DHT22;20067;48.764;9.176;2022-09-23T05:21:27;8.40;91.30
26186;DHT22;20067;48.764;9.176;2022-09-23T05:23:56;8.40;91.30
26186;DHT22;20067;48.764;9.176;2022-09-23T05:26:27;8.30;91.30
26186;DHT22;20067;48.764;9.176;2022-09-23T05:28:55;8.40;91.30
26186;DHT22;20067;48.764;9.176;2022-09-23T05:31:22;8.40;91.30
26186;DHT22;20067;48.764;9.176;2022-09-23T05:33:55;8.40;91.30
26186;DHT22;20067;48.764;9.176;2022-09-23T05:36:22;8.40;91.30
26186;DHT22;20067;48.764;9.176;2022-09-23T05:38:49;8.40;91.30
26186;DHT22;20067;48.764;9.176;2022-09-23T05:41:16;8.50;91.30
26186;DHT22;20067;48.764;9.176;2022-09-23T05:43:42;8.50;91.30
26186;DHT22;20067;48.764;9.176;2022-09-23T05:46:16;8.60;91.30
26186;DHT22;20067;48.764;9.176;2022-09-23T05:48:42;8.70;91.30
26186;DHT22;20067;48.764;9.176;2022-09-23T05:51:14;8.70;91.30
26186;DHT22;20067;48.764;9.176;2022-09-23T05:53:40;8.60;91.30
26186;DHT22;20067;48.764;9.176;2022-09-23T05:56:09;8.60;91.30
26186;DHT22;20067;48.764;9.176;2022-09-23T05:58:34;8.60;91.30
26186;DHT22;20067;48.764;9.176;2022-09-23T06:01:00;8.60;91.30
26186;DHT22;20067;48.764;9.176;2022-09-23T06:03:26;8.60;91.30
26186;DHT22;20067;48.764;9.176;2022-09-23T06:05:54;8.60;91.30
26186;DHT22;20067;48.764;9.176;2022-09-23T06:08:21;8.60;91.30
26186;DHT22;20067;48.764;9.176;2022-09-23T06:10:47;8.60;91.30
26186;DHT22;20067;48.764;9.176;2022-09-23T06:13:12;8.70;91.30
26186;DHT22;20067;48.764;9.176;2022-09-23T06:15:40;8.80;91.30
26186;DHT22;20067;48.764;9.176;2022-09-23T06:18:06;9.00;91.30
26186;DHT22;20067;48.764;9.176;2022-09-23T06:20:32;9.10;91.30
26186;DHT22;20067;48.764;9.176;2022-09-23T06:23:04;9.10;91.30
26186;DHT22;20067;48.764;9.176;2022-09-23T06:25:34;9.20;91.30
26186;DHT22;20067;48.764;9.176;2022-09-23T06:28:00;9.30;91.30
26186;DHT22;20067;48.764;9.176;2022-09-23T06:30:26;9.30;91.30
26186;DHT22;20067;48.764;9.176;2022-09-23T06:32:55;9.30;91.30
26186;DHT22;20067;48.764;9.176;2022-09-23T06:35:23;9.40;91.30
26186;DHT22;20067;48.764;9.176;2022-09-23T06:37:49;9.40;91.30
26186;DHT22;20067;48.764;9.176;2022-09-23T06:40:15;9.40;91.30
26186;DHT22;20067;48.764;9.176;2022-09-23T06:42:41;9.60;91.30
26186;DHT22;20067;48.764;9.176;2022-09-23T06:45:09;9.60;91.30
26186;DHT22;20067;48.764;9.176;2022-09-23T06:47:37;9.70;91.30
26186;DHT22;20067;48.764;9.176;2022-09-23T06:50:04;9.80;91.30
26186;DHT22;20067;48.764;9.176;2022-09-23T06:52:30;10.00;91.30
26186;DHT22;20067;48.764;9.176;2022-09-23T06:54:55;10.10;91.30
26186;DHT22;20067;48.764;9.176;2022-09-23T06:57:21;10.20;91.30
26186;DHT22;20067;48.764;9.176;2022-09-23T06:59:47;10.30;91.30
26186;DHT22;20067;48.764;9.176;2022-09-23T07:02:13;10.30;90.40
26186;DHT22;20067;48.764;9.176;2022-09-23T07:04:38;10.40;91.00
26186;DHT22;20067;48.764;9.176;2022-09-23T07:07:04;10.50;90.50
26186;DHT22;20067;48.764;9.176;2022-09-23T07:09:30;10.60;90.30
26186;DHT22;20067;48.764;9.176;2022-09-23T07:11:55;10.70;90.00
26186;DHT22;20067;48.764;9.176;2022-09-23T07:14:22;10.70;90.20
26186;DHT22;20067;48.764;9.176;2022-09-23T07:16:48;10.90;90.40
26186;DHT22;20067;48.764;9.176;2022-09-23T07:19:14;11.10;89.60
26186;DHT22;20067;48.764;9.176;2022-09-23T07:21:39;11.30;88.30
26186;DHT22;20067;48.764;9.176;2022-09-23T07:24:05;11.50;88.50
26186;DHT22;20067;48.764;9.176;2022-09-23T07:26:31;11.70;87.40
26186;DHT22;20067;48.764;9.176;2022-09-23T07:29:00;11.90;87.40
26186;DHT22;20067;48.764;9.176;2022-09-23T07:31:33;12.20;85.40
26186;DHT22;20067;48.764;9.176;2022-09-23T07:34:00;12.40;85.20
26186;DHT22;20067;48.764;9.176;2022-09-23T07:36:28;12.70;84.40
26186;DHT22;20067;48.764;9.176;2022-09-23T07:38:55;12.90;83.50
26186;DHT22;20067;48.764;9.176;2022-09-23T07:41:25;13.10;81.70
26186;DHT22;20067;48.764;9.176;2022-09-23T07:43:54;13.30;81.40
26186;DHT22;20067;48.764;9.176;2022-09-23T07:46:34;13.60;80.80
26186;DHT22;20067;48.764;9.176;2022-09-23T07:49:00;13.70;79.30
26186;DHT22;20067;48.764;9.176;2022-09-23T07:51:29;13.80;80.00
26186;DHT22;20067;48.764;9.176;2022-09-23T07:53:56;14.20;78.30
26186;DHT22;20067;48.764;9.176;2022-09-23T07:56:27;14.80;79.00
26186;DHT22;20067;48.764;9.176;2022-09-23T07:58:53;15.40;76.90
26186;DHT22;20067;48.764;9.176;2022-09-23T08:01:32;15.50;73.40
26186;DHT22;20067;48.764;9.176;2022-09-23T08:04:11;15.40;74.20
26186;DHT22;20067;48.764;9.176;2022-09-23T08:06:41;15.60;73.70
26186;DHT22;20067;48.764;9.176;2022-09-23T08:09:07;15.30;74.50
26186;DHT22;20067;48.764;9.176;2022-09-23T08:11:33;14.80;76.20
26186;DHT22;20067;48.764;9.176;2022-09-23T08:14:00;14.80;77.40
26186;DHT22;20067;48.764;9.176;2022-09-23T08:16:26;15.00;76.20
26186;DHT22;20067;48.764;9.176;2022-09-23T08:18:51;15.20;75.80
26186;DHT22;20067;48.764;9.176;2022-09-23T08:21:19;14.80;76.00
26186;DHT22;20067;48.764;9.176;2022-09-23T08:23:45;15.00;76.20
26186;DHT22;20067;48.764;9.176;2022-09-23T08:26:11;15.10;76.00
26186;DHT22;20067;48.764;9.176;2022-09-23T08:28:36;15.40;76.20
26186;DHT22;20067;48.764;9.176;2022-09-23T08:31:02;16.00;74.20
26186;DHT22;20067;48.764;9.176;2022-09-23T08:33:28;16.60;73.20
26186;DHT22;20067;48.764;9.176;2022-09-23T08:35:58;17.20;71.00
26186;DHT22;20067;48.764;9.176;2022-09-23T08:38:24;17.20;70.30
26186;DHT22;20067;48.764;9.176;2022-09-23T08:40:51;17.10;70.60
26186;DHT22;20067;48.764;9.176;2022-09-23T08:43:28;17.40;70.20
26186;DHT22;20067;48.764;9.176;2022-09-23T08:45:56;17.60;69.10
26186;DHT22;20067;48.764;9.176;2022-09-23T08:48:37;17.40;69.30
26186;DHT22;20067;48.764;9.176;2022-09-23T08:51:06;18.00;68.50
26186;DHT22;20067;48.764;9.176;2022-09-23T08:53:36;18.30;68.30
26186;DHT22;20067;48.764;9.176;2022-09-23T08:56:05;18.20;67.40
26186;DHT22;20067;48.764;9.176;2022-09-23T08:58:49;18.20;67.20
26186;DHT22;20067;48.764;9.176;2022-09-23T09:06:51;17.80;69.00
26186;DHT22;20067;48.764;9.176;2022-09-23T09:09:27;18.20;68.60
26186;DHT22;20067;48.764;9.176;2022-09-23T09:12:21;19.00;67.30
26186;DHT22;20067;48.764;9.176;2022-09-23T09:14:58;19.40;65.50
26186;DHT22;20067;48.764;9.176;2022-09-23T09:19:56;18.30;68.40
26186;DHT22;20067;48.764;9.176;2022-09-23T09:27:45;20.40;63.40
26186;DHT22;20067;48.764;9.176;2022-09-23T09:30:12;20.90;61.70
26186;DHT22;20067;48.764;9.176;2022-09-23T09:33:12;21.20;62.00
26186;DHT22;20067;48.764;9.176;2022-09-23T09:38:25;22.20;60.20
26186;DHT22;20067;48.764;9.176;2022-09-23T09:40:54;22.60;57.00
26186;DHT22;20067;48.764;9.176;2022-09-23T09:43:24;21.70;58.60
26186;DHT22;20067;48.764;9.176;2022-09-23T09:51:22;22.30;58.60
26186;DHT22;20067;48.764;9.176;2022-09-23T09:53:49;22.90;56.80
26186;DHT22;20067;48.764;9.176;2022-09-23T09:56:24;23.20;55.40
26186;DHT22;20067;48.764;9.176;2022-09-23T09:59:08;23.20;56.90
26186;DHT22;20067;48.764;9.176;2022-09-23T10:01:37;23.10;56.60
26186;DHT22;20067;48.764;9.176;2022-09-23T10:04:05;24.00;55.50
26186;DHT22;20067;48.764;9.176;2022-09-23T10:06:41;24.70;54.00
26186;DHT22;20067;48.764;9.176;2022-09-23T10:11:32;24.90;51.80
26186;DHT22;20067;48.764;9.176;2022-09-23T10:16:25;24.60;53.40
26186;DHT22;20067;48.764;9.176;2022-09-23T10:18:51;24.40;53.20
26186;DHT22;20067;48.764;9.176;2022-09-23T10:21:22;24.60;53.50
26186;DHT22;20067;48.764;9.176;2022-09-23T10:23:51;24.90;52.20
26186;DHT22;20067;48.764;9.176;2022-09-23T10:26:29;25.00;51.90
26186;DHT22;20067;48.764;9.176;2022-09-23T10:29:01;24.90;51.40
26186;DHT22;20067;48.764;9.176;2022-09-23T10:31:31;24.80;52.30
26186;DHT22;20067;48.764;9.176;2022-09-23T10:34:00;24.80;52.00
26186;DHT22;20067;48.764;9.176;2022-09-23T10:36:29;25.40;52.30
26186;DHT22;20067;48.764;9.176;2022-09-23T10:39:00;25.50;52.30
26186;DHT22;20067;48.764;9.176;2022-09-23T10:47:49;22.80;56.40
26186;DHT22;20067;48.764;9.176;2022-09-23T10:50:42;23.10;55.30
26186;DHT22;20067;48.764;9.176;2022-09-23T10:53:34;24.80;54.30
26186;DHT22;20067;48.764;9.176;2022-09-23T10:59:05;27.10;49.50
26186;DHT22;20067;48.764;9.176;2022-09-23T11:01:37;28.00;49.00
26186;DHT22;20067;48.764;9.176;2022-09-23T11:10:23;32.20;42.00
26186;DHT22;20067;48.764;9.176;2022-09-23T11:13:04;30.40;43.10
26186;DHT22;20067;48.764;9.176;2022-09-23T11:16:07;30.30;43.20
26186;DHT22;20067;48.764;9.176;2022-09-23T11:26:48;28.60;44.70
26186;DHT22;20067;48.764;9.176;2022-09-23T11:37:30;28.50;45.20
26186;DHT22;20067;48.764;9.176;2022-09-23T11:40:06;27.30;47.40
26186;DHT22;20067;48.764;9.176;2022-09-23T11:42:59;27.10;48.00
26186;DHT22;20067;48.764;9.176;2022-09-23T11:45:30;26.90;49.10
26186;DHT22;20067;48.764;9.176;2022-09-23T11:48:14;27.40;47.20
26186;DHT22;20067;48.764;9.176;2022-09-23T11:50:53;28.40;45.60
26186;DHT22;20067;48.764;9.176;2022-09-23T11:54:24;28.50;46.50
26186;DHT22;20067;48.764;9.176;2022-09-23T12:04:43;26.00;49.20
26186;DHT22;20067;48.764;9.176;2022-09-23T12:07:21;25.60;51.00
26186;DHT22;20067;48.764;9.176;2022-09-23T12:10:05;25.80;50.50
26186;DHT22;20067;48.764;9.176;2022-09-23T12:26:21;25.80;50.90
26186;DHT22;20067;48.764;9.176;2022-09-23T12:28:50;26.40;49.80
26186;DHT22;20067;48.764;9.176;2022-09-23T12:31:20;26.50;49.50
26186;DHT22;20067;48.764;9.176;2022-09-23T12:33:52;26.20;49.40
26186;DHT22;20067;48.764;9.176;2022-09-23T12:36:32;25.20;50.80
26186;DHT22;20067;48.764;9.176;2022-09-23T12:39:06;25.40;50.50
26186;DHT22;20067;48.764;9.176;2022-09-23T12:41:39;25.10;51.90
26186;DHT22;20067;48.764;9.176;2022-09-23T12:44:12;24.60;52.30
26186;DHT22;20067;48.764;9.176;2022-09-23T12:46:43;23.90;54.20
26186;DHT22;20067;48.764;9.176;2022-09-23T12:49:35;23.70;55.00
26186;DHT22;20067;48.764;9.176;2022-09-23T12:52:22;23.20;55.50
26186;DHT22;20067;48.764;9.176;2022-09-23T12:54:50;23.20;55.90
26186;DHT22;20067;48.764;9.176;2022-09-23T13:02:35;23.20;56.00
26186;DHT22;20067;48.764;9.176;2022-09-23T13:10:55;24.50;53.70
26186;DHT22;20067;48.764;9.176;2022-09-23T13:13:28;24.80;52.60
26186;DHT22;20067;48.764;9.176;2022-09-23T13:16:13;24.20;53.00
26186;DHT22;20067;48.764;9.176;2022-09-23T13:18:52;24.40;54.00
26186;DHT22;20067;48.764;9.176;2022-09-23T13:26:46;24.40;53.50
26186;DHT22;20067;48.764;9.176;2022-09-23T13:29:26;24.30;53.10
26186;DHT22;20067;48.764;9.176;2022-09-23T13:31:54;24.20;54.60
26186;DHT22;20067;48.764;9.176;2022-09-23T13:34:27;23.90;53.80
26186;DHT22;20067;48.764;9.176;2022-09-23T13:36:54;24.20;54.60
26186;DHT22;20067;48.764;9.176;2022-09-23T13:39:28;24.30;53.60
26186;DHT22;20067;48.764;9.176;2022-09-23T13:42:00;23.70;54.20
26186;DHT22;20067;48.764;9.176;2022-09-23T13:44:27;23.30;56.50
26186;DHT22;20067;48.764;9.176;2022-09-23T13:46:57;22.80;56.50
26186;DHT22;20067;48.764;9.176;2022-09-23T13:49:27;22.80;57.30
26186;DHT22;20067;48.764;9.176;2022-09-23T13:51:55;22.80;56.80
26186;DHT22;20067;48.764;9.176;2022-09-23T13:54:53;22.80;57.30
26186;DHT22;20067;48.764;9.176;2022-09-23T13:57:30;22.90;56.60
26186;DHT22;20067;48.764;9.176;2022-09-23T14:00:00;22.70;57.30
26186;DHT22;20067;48.764;9.176;2022-09-23T14:02:26;22.60;57.80
26186;DHT22;20067;48.764;9.176;2022-09-23T14:04:56;22.90;56.70
26186;DHT22;20067;48.764;9.176;2022-09-23T14:07:23;23.00;57.10
26186;DHT22;20067;48.764;9.176;2022-09-23T14:09:52;23.10;57.10
26186;DHT22;20067;48.764;9.176;2022-09-23T14:12:18;23.30;57.10
26186;DHT22;20067;48.764;9.176;2022-09-23T14:14:53;23.40;56.00
26186;DHT22;20067;48.764;9.176;2022-09-23T14:17:20;23.30;56.60
26186;DHT22;20067;48.764;9.176;2022-09-23T14:19:48;23.40;56.30
26186;DHT22;20067;48.764;9.176;2022-09-23T14:22:26;23.00;56.50
26186;DHT22;20067;48.764;9.176;2022-09-23T14:24:53;23.00;57.10
26186;DHT22;20067;48.764;9.176;2022-09-23T14:27:29;22.90;57.40
26186;DHT22;20067;48.764;9.176;2022-09-23T14:29:56;23.10;57.50
26186;DHT22;20067;48.764;9.176;2022-09-23T14:32:24;22.70;57.00
26186;DHT22;20067;48.764;9.176;2022-09-23T14:37:24;22.50;58.10
26186;DHT22;20067;48.764;9.176;2022-09-23T14:40:34;22.40;57.80
26186;DHT22;20067;48.764;9.176;2022-09-23T14:43:19;22.30;58.40
26186;DHT22;20067;48.764;9.176;2022-09-23T14:45:54;22.20;58.30
26186;DHT22;20067;48.764;9.176;2022-09-23T14:48:24;22.40;58.20
26186;DHT22;20067;48.764;9.176;2022-09-23T14:50:56;22.40;58.60
26186;DHT22;20067;48.764;9.176;2022-09-23T15:04:16;23.30;55.80
26186;DHT22;20067;48.764;9.176;2022-09-23T15:06:54;23.60;56.10
26186;DHT22;20067;48.764;9.176;2022-09-23T15:09:40;23.30;55.70
26186;DHT22;20067;48.764;9.176;2022-09-23T15:12:19;22.50;57.60
26186;DHT22;20067;48.764;9.176;2022-09-23T15:14:53;21.80;58.80
26186;DHT22;20067;48.764;9.176;2022-09-23T15:19:53;22.00;59.40
26186;DHT22;20067;48.764;9.176;2022-09-23T15:22:23;22.10;59.90
26186;DHT22;20067;48.764;9.176;2022-09-23T15:24:50;21.80;60.30
26186;DHT22;20067;48.764;9.176;2022-09-23T15:27:24;21.60;61.00
26186;DHT22;20067;48.764;9.176;2022-09-23T15:29:51;21.10;61.60
26186;DHT22;20067;48.764;9.176;2022-09-23T15:32:19;20.80;63.50
26186;DHT22;20067;48.764;9.176;2022-09-23T15:34:47;20.70;63.20
26186;DHT22;20067;48.764;9.176;2022-09-23T15:37:14;20.80;63.30
26186;DHT22;20067;48.764;9.176;2022-09-23T15:39:40;20.80;63.90
26186;DHT22;20067;48.764;9.176;2022-09-23T15:42:07;20.70;64.00
26186;DHT22;20067;48.764;9.176;2022-09-23T15:44:34;20.60;64.00
26186;DHT22;20067;48.764;9.176;2022-09-23T15:47:01;20.40;64.00
26186;DHT22;20067;48.764;9.176;2022-09-23T15:49:37;20.10;65.00
26186;DHT22;20067;48.764;9.176;2022-09-23T15:52:08;20.00;65.20
26186;DHT22;20067;48.764;9.176;2022-09-23T15:54:34;20.00;65.70
26186;DHT22;20067;48.764;9.176;2022-09-23T15:57:00;19.70;66.30
26186;DHT22;20067;48.764;9.176;2022-09-23T15:59:29;19.60;67.10
26186;DHT22;20067;48.764;9.176;2022-09-23T16:01:57;19.50;67.00
26186;DHT22;20067;48.764;9.176;2022-09-23T16:04:26;19.50;67.90
26186;DHT22;20067;48.764;9.176;2022-09-23T16:06:53;19.50;68.20
26186;DHT22;20067;48.764;9.176;2022-09-23T16:09:18;19.50;68.20
26186;DHT22;20067;48.764;9.176;2022-09-23T16:11:46;19.40;68.70
26186;DHT22;20067;48.764;9.176;2022-09-23T16:14:15;19.30;68.90
26186;DHT22;20067;48.764;9.176;2022-09-23T16:16:42;19.30;68.60
26186;DHT22;20067;48.764;9.176;2022-09-23T16:19:13;19.10;68.80
26186;DHT22;20067;48.764;9.176;2022-09-23T16:21:39;19.10;69.00
26186;DHT22;20067;48.764;9.176;2022-09-23T16:24:11;18.90;69.80
26186;DHT22;20067;48.764;9.176;2022-09-23T16:26:39;18.80;69.80
26186;DHT22;20067;48.764;9.176;2022-09-23T16:29:05;18.70;70.10
26186;DHT22;20067;48.764;9.176;2022-09-23T16:31:31;18.50;70.90
26186;DHT22;20067;48.764;9.176;2022-09-23T16:33:57;18.40;70.80
26186;DHT22;20067;48.764;9.176;2022-09-23T16:36:31;18.30;71.70
26186;DHT22;20067;48.764;9.176;2022-09-23T16:38:59;18.30;71.50
26186;DHT22;20067;48.764;9.176;2022-09-23T16:41:26;18.30;71.70
26186;DHT22;20067;48.764;9.176;2022-09-23T16:43:59;18.30;71.60
26186;DHT22;20067;48.764;9.176;2022-09-23T16:46:26;18.30;72.00
26186;DHT22;20067;48.764;9.176;2022-09-23T16:48:53;18.10;72.10
26186;DHT22;20067;48.764;9.176;2022-09-23T16:51:26;17.90;72.90
26186;DHT22;20067;48.764;9.176;2022-09-23T16:53:54;17.80;73.30
26186;DHT22;20067;48.764;9.176;2022-09-23T16:56:24;17.80;73.50
26186;DHT22;20067;48.764;9.176;2022-09-23T16:58:51;17.80;73.80
26186;DHT22;20067;48.764;9.176;2022-09-23T17:01:25;17.80;74.40
26186;DHT22;20067;48.764;9.176;2022-09-23T17:04:11;17.90;74.10
26186;DHT22;20067;48.764;9.176;2022-09-23T17:06:46;17.90;74.30
26186;DHT22;20067;48.764;9.176;2022-09-23T17:09:15;17.80;73.90
26186;DHT22;20067;48.764;9.176;2022-09-23T17:11:42;17.80;74.50
26186;DHT22;20067;48.764;9.176;2022-09-23T17:14:16;17.70;74.50
26186;DHT22;20067;48.764;9.176;2022-09-23T17:16:42;17.60;74.30
26186;DHT22;20067;48.764;9.176;2022-09-23T17:19:09;17.50;75.20
26186;DHT22;20067;48.764;9.176;2022-09-23T17:21:35;17.60;76.50
26186;DHT22;20067;48.764;9.176;2022-09-23T17:24:01;17.70;76.20
26186;DHT22;20067;48.764;9.176;2022-09-23T17:26:27;17.70;76.50
26186;DHT22;20067;48.764;9.176;2022-09-23T17:28:54;17.60;77.20
26186;DHT22;20067;48.764;9.176;2022-09-23T17:31:21;17.40;78.00
26186;DHT22;20067;48.764;9.176;2022-09-23T17:33:48;17.20;78.90
26186;DHT22;20067;48.764;9.176;2022-09-23T17:36:14;16.90;79.60
26186;DHT22;20067;48.764;9.176;2022-09-23T17:38:44;16.60;80.10
26186;DHT22;20067;48.764;9.176;2022-09-23T17:41:12;16.50;80.80
26186;DHT22;20067;48.764;9.176;2022-09-23T17:43:38;16.50;80.80
26186;DHT22;20067;48.764;9.176;2022-09-23T17:46:09;16.40;80.80
26186;DHT22;20067;48.764;9.176;2022-09-23T17:48:37;16.40;81.10
26186;DHT22;20067;48.764;9.176;2022-09-23T17:51:04;16.40;81.20
26186;DHT22;20067;48.764;9.176;2022-09-23T17:53:32;16.30;81.30
26186;DHT22;20067;48.764;9.176;2022-09-23T17:56:00;16.10;82.00
26186;DHT22;20067;48.764;9.176;2022-09-23T17:58:27;16.00;82.10
26186;DHT22;20067;48.764;9.176;2022-09-23T18:00:55;15.90;82.70
26186;DHT22;20067;48.764;9.176;2022-09-23T18:03:21;15.80;82.70
26186;DHT22;20067;48.764;9.176;2022-09-23T18:05:47;15.90;82.90
26186;DHT22;20067;48.764;9.176;2022-09-23T18:08:13;16.00;82.10
26186;DHT22;20067;48.764;9.176;2022-09-23T18:10:39;15.90;82.20
26186;DHT22;20067;48.764;9.176;2022-09-23T18:13:04;15.70;82.90
26186;DHT22;20067;48.764;9.176;2022-09-23T18:15:30;15.70;83.40
26186;DHT22;20067;48.764;9.176;2022-09-23T18:17:57;15.60;83.70
26186;DHT22;20067;48.764;9.176;2022-09-23T18:20:23;15.50;83.90
26186;DHT22;20067;48.764;9.176;2022-09-23T18:22:48;15.40;84.30
26186;DHT22;20067;48.764;9.176;2022-09-23T18:25:14;15.50;84.60
26186;DHT22;20067;48.764;9.176;2022-09-23T18:27:41;15.50;84.80
26186;DHT22;20067;48.764;9.176;2022-09-23T18:30:07;15.50;85.00
26186;DHT22;20067;48.764;9.176;2022-09-23T18:32:33;15.40;85.20
26186;DHT22;20067;48.764;9.176;2022-09-23T18:34:58;15.40;85.30